YCES weather

Ceres Airport
Victoria, Australia

Public forecast

Using degrees Celsius for public forecast. Weather courtesy of forecast.io.

METAR (pilot weather report)

Closest report is Avalon Airport, 11.9 nm (22.1 km) ENE. Retrieved 2018/10/18 10:30 UTC (26 minutes ago):

YMAV 181030Z AUTO 25006KT 9999 // BKN038 BKN045 OVC059 17/13 Q1016

TAF (pilot weather forecast)

Forecast is more than 12 hours old.

Closest forecast is Avalon Airport, 11.9 nm (22.1 km) ENE. Retrieved 2018/10/17 00:00 UTC (1 day ago):

TAF YMAV 172305Z 1800/1824 31012KT 9999 -SHRA SCT035 BKN050 FM180900 33008KT 9999 SCT020 BKN035 FM181400 36006KT 9999 FEW020 SCT035 FM182200 01012KT CAVOK